Address 0x6c370156e5042d1416fe681796b5254a62c879d0

 
 
Txn Hash Method
Block
From
To
Value [Txn Fee]
0x60bb1fb1d97c545562a98d3519deb630becc1ae18bd598d6faf5a1a79fd4d220Lock103844492021-08-27 4:10:1227 days 10 hrs ago0x6c370156e5042d1416fe681796b5254a62c879d0OUT 0x27e636d95fda95064abdd7d31dffca4b41f9cb440 BNB0.0012318
0xc7cf730d326844c3856810fb94a16a51399dfddc219eaf52f6501cbe0985dd5fSet Approval For...103844442021-08-27 4:09:5727 days 10 hrs ago0x6c370156e5042d1416fe681796b5254a62c879d0OUT XWorldGames: CARD Token0 BNB0.00022479
0xa7c13db31e66787897a5c4d98647a7572c8fb6f4cdf8f6e96d535d2b3ebb34480xb6a57b08103844232021-08-27 4:08:5427 days 10 hrs ago0x6c370156e5042d1416fe681796b5254a62c879d0OUT 0xa85dfbb1bf2983917ed206b4962538e15ebb6f160 BNB0.002271555
0x929845f5869408ca40b36cef609840df0bb847427d2359589edd57bcef52546bTransfer103844102021-08-27 4:08:1527 days 10 hrs ago0x2df0129771a2d25fd2cd39dc34d908bad254917f IN 0x6c370156e5042d1416fe681796b5254a62c879d00.0025 BNB0.000105
0x387579b93a0cb6076f35b42bf18fb771e96d51804741a5f2573452c2fa61e082Fight101812322021-08-20 1:55:0034 days 13 hrs ago0x6c370156e5042d1416fe681796b5254a62c879d0OUT CryptoBlades: Gameplay0 BNB0.000751585
0xd0f39ceb2bc318f296e3956ee7c1019426632c899684b47c78f0d7f44814349dFight101812102021-08-20 1:53:5434 days 13 hrs ago0x6c370156e5042d1416fe681796b5254a62c879d0OUT CryptoBlades: Gameplay0 BNB0.00074456
0x83914e8feeef47cb361ea6ccc61c2a24c94b3ffc00d4780861dc90597c1073b3Fight101811902021-08-20 1:52:5434 days 13 hrs ago0x6c370156e5042d1416fe681796b5254a62c879d0OUT CryptoBlades: Gameplay0 BNB0.00074639
0x07b5c7c433f69859bc27c223ca3835c1f2f9d3e6693c7f58efa47982c8a550e4Fight101811692021-08-20 1:51:5134 days 13 hrs ago0x6c370156e5042d1416fe681796b5254a62c879d0OUT CryptoBlades: Gameplay0 BNB0.00075011
0x013b983fdd4b40452983d21a234ddac226971aea954e0f6f2657f55374e1d502Fight101651622021-08-19 12:24:3735 days 2 hrs ago0x6c370156e5042d1416fe681796b5254a62c879d0OUT CryptoBlades: Gameplay0 BNB0.00074963
0xfeb2bc767edb3b43b289207ce5316651d50a0d59f8c007b867d35689e5f5c903Fight101651452021-08-19 12:23:4035 days 2 hrs ago0x6c370156e5042d1416fe681796b5254a62c879d0OUT CryptoBlades: Gameplay0 BNB0.00074577
0x53101c30100e21b962137cce5786278cf233d08d809037ac9ff5136245518022Fight101651272021-08-19 12:22:3735 days 2 hrs ago0x6c370156e5042d1416fe681796b5254a62c879d0OUT CryptoBlades: Gameplay0 BNB0.000750665
0x17025bc354c777ac6ce4fc0fd528ec1d37b36de5806a5b9fa46f082df4261640Fight101651092021-08-19 12:21:3935 days 2 hrs ago0x6c370156e5042d1416fe681796b5254a62c879d0OUT CryptoBlades: Gameplay0 BNB0.00074596
0x5584e2ef42b48be09169e1c9c7e3c84f33fc33d8283cbf8a5473f25cff64042aFight101537212021-08-19 2:46:2035 days 12 hrs ago0x6c370156e5042d1416fe681796b5254a62c879d0OUT CryptoBlades: Gameplay0 BNB0.000747725
0xac4ccc23704d4d4174cdb777240077b4b95e1c7178cab39ba81bd27ea32430e7Fight101537012021-08-19 2:45:2035 days 12 hrs ago0x6c370156e5042d1416fe681796b5254a62c879d0OUT CryptoBlades: Gameplay0 BNB0.000746565
0x1cad13d663b0d945a9ec2780065a2aab38f252f95079a8ff7b41b7cf92434fd9Fight101536892021-08-19 2:44:4435 days 12 hrs ago0x6c370156e5042d1416fe681796b5254a62c879d0OUT CryptoBlades: Gameplay0 BNB0.00074596
0xaab0fe18d2e2baef8ead717b0bdde4df60bf7dd67304cd3a52f1d23610af4c5bFight101536742021-08-19 2:43:5935 days 12 hrs ago0x6c370156e5042d1416fe681796b5254a62c879d0OUT CryptoBlades: Gameplay0 BNB0.0007476
0x301076279127a7f4aac55120abdefa2d532a96c3c94d68f2077b57902aaa3682Fight101373402021-08-18 13:05:4536 days 2 hrs ago0x6c370156e5042d1416fe681796b5254a62c879d0OUT CryptoBlades: Gameplay0 BNB0.000750235
0xa67b82db7ec20c7fb60f6e21a5f676457e8d0b49661a4b6a4e9de29b28533360Fight101373172021-08-18 13:04:3636 days 2 hrs ago0x6c370156e5042d1416fe681796b5254a62c879d0OUT CryptoBlades: Gameplay0 BNB0.00074596
0x7de41023545e40cbf2dae24d692d139d138a0675f6d9d950884575edb4538db8Fight101373002021-08-18 13:03:4536 days 2 hrs ago0x6c370156e5042d1416fe681796b5254a62c879d0OUT CryptoBlades: Gameplay0 BNB0.00074499
0xaff8e59cd8a2743cc8c43768e0e7aee4a1a6a729c5d5165fb49e29d1bb208253Fight101372692021-08-18 13:02:1236 days 2 hrs ago0x6c370156e5042d1416fe681796b5254a62c879d0OUT CryptoBlades: Gameplay0 BNB0.00075141
0x16af8fc4d081f1c4b971dba7476b58d52bdfa97c6808bd161c7f2f925c1eb1baFight101231622021-08-18 1:16:1836 days 13 hrs ago0x6c370156e5042d1416fe681796b5254a62c879d0OUT CryptoBlades: Gameplay0 BNB0.000746565
0x0ecf420bf6fe563d68b2aefd40451ce2febc9c70da8c158656e59605fe084391Fight101231482021-08-18 1:15:3436 days 13 hrs ago0x6c370156e5042d1416fe681796b5254a62c879d0OUT CryptoBlades: Gameplay0 BNB0.00075033
0x99b8a663550b6c3cf93cf2a2f10e6eaab47012eadd2dd4f7664fb67dc015e6fbFight101231272021-08-18 1:14:3136 days 13 hrs ago0x6c370156e5042d1416fe681796b5254a62c879d0OUT CryptoBlades: Gameplay0 BNB0.00074596
0xac26c1e044b83be614e5a89530b0f8802c0d778451156c6671fb8f04d9a4bd0dFight101231052021-08-18 1:13:2536 days 13 hrs ago0x6c370156e5042d1416fe681796b5254a62c879d0OUT CryptoBlades: Gameplay0 BNB0.000748155
0x368ab3cc5ffdb554d9efc06b250b7691edbb30d93cb99cd94051ba82ebd1f55dFight101082252021-08-17 12:48:2037 days 2 hrs ago0x6c370156e5042d1416fe681796b5254a62c879d0OUT CryptoBlades: Gameplay0 BNB0.000746565
[ Download CSV Export 
Latest 3 internal transactions
Parent Txn Hash Block From To Value
0x140047704880cddb47fbbe766228327bc8940e2cbb74204ddfe05fdfa2c5ca5593505462021-07-21 12:17:3764 days 2 hrs ago PancakeSwap: Router v20x6c370156e5042d1416fe681796b5254a62c879d00.108150580113384281 BNB
0x27f2b2663a56ec265c8f9d5f614f9ea6114c82177cf60c802ad4f74427c0641f93254872021-07-20 15:24:3964 days 23 hrs ago PancakeSwap: Router v20x6c370156e5042d1416fe681796b5254a62c879d00.001582906900487201 BNB
0x3385a3bd37109cbcfb90a13927b02a288686b9ef8a5424b155dbfed7db3e54e593231562021-07-20 13:28:0665 days 1 hr ago PancakeSwap: Router v20x6c370156e5042d1416fe681796b5254a62c879d00.003315100643847018 BNB
[ Download CSV Export 
Loading

Contract Name:
0 BNB

Compiler Version
0

Optimization Enabled:
0 BNB

Other Settings:
-NA-
Block Transaction Gas Used Reward
Age Block Fee Address BC Fee Address Voting Power Jailed Incoming
Block Uncle Number Difficulty Gas Used Reward
Loading
Loading
Make sure to use the "Vote Down" button for any spammy posts, and the "Vote Up" for interesting conversations.